createdAt,value
2023-04-06T00:02:48.224Z,14.77
2023-04-06T00:05:50.935Z,14.73
2023-04-06T00:08:53.725Z,14.86
2023-04-06T00:11:56.582Z,14.73
2023-04-06T00:14:59.015Z,14.68
2023-04-06T00:18:01.601Z,14.85
2023-04-06T00:21:04.704Z,14.81
2023-04-06T00:24:07.035Z,14.81
2023-04-06T00:27:09.179Z,14.86
2023-04-06T00:30:11.710Z,14.95
2023-04-06T00:33:13.925Z,14.96
2023-04-06T00:36:16.185Z,14.79
2023-04-06T00:39:20.509Z,15.07
2023-04-06T00:42:31.426Z,15.15
2023-04-06T00:45:34.544Z,14.95
2023-04-06T00:48:37.278Z,14.71
2023-04-06T00:51:39.559Z,14.74
2023-04-06T00:54:43.071Z,14.63
2023-04-06T01:00:14.999Z,14.76
2023-04-06T01:03:19.919Z,14.87
2023-04-06T01:06:23.021Z,14.80
2023-04-06T01:09:33.993Z,14.97
2023-04-06T01:12:40.728Z,14.87
2023-04-06T01:15:51.637Z,14.81
2023-04-06T01:19:00.848Z,14.81
2023-04-06T01:22:06.447Z,14.70
2023-04-06T01:25:09.584Z,14.51
2023-04-06T01:28:35.148Z,14.75
2023-04-06T01:31:44.940Z,14.64
2023-04-06T01:34:47.014Z,14.75
2023-04-06T01:37:49.318Z,14.60
2023-04-06T01:40:59.569Z,14.64
2023-04-06T01:44:06.800Z,14.65
2023-04-06T01:47:09.189Z,14.77
2023-04-06T01:50:11.448Z,14.78
2023-04-06T01:53:18.805Z,14.81
2023-04-06T01:56:22.218Z,14.94
2023-04-06T01:59:38.553Z,14.75
2023-04-06T02:02:47.217Z,14.95
2023-04-06T02:05:56.590Z,14.81
2023-04-06T02:09:05.237Z,14.90
2023-04-06T02:12:07.896Z,14.90
2023-04-06T02:15:11.253Z,14.65
2023-04-06T02:18:13.507Z,14.59
2023-04-06T02:21:21.186Z,14.57
2023-04-06T02:24:23.500Z,14.66
2023-04-06T02:27:25.930Z,14.61
2023-04-06T02:30:28.399Z,14.69
2023-04-06T02:33:30.662Z,14.49
2023-04-06T02:36:32.996Z,14.41
2023-04-06T02:39:35.137Z,14.76
2023-04-06T02:42:38.631Z,14.82
2023-04-06T02:45:41.857Z,14.68
2023-04-06T02:48:45.871Z,14.56
2023-04-06T02:51:49.626Z,14.85
2023-04-06T02:54:59.848Z,14.71
2023-04-06T02:58:05.066Z,14.72
2023-04-06T03:01:16.252Z,14.61
2023-04-06T03:04:19.971Z,14.48
2023-04-06T03:07:23.357Z,14.57
2023-04-06T03:10:29.800Z,14.51
2023-04-06T03:13:32.561Z,14.57
2023-04-06T03:16:36.943Z,14.48
2023-04-06T03:19:40.653Z,14.38
2023-04-06T03:22:44.369Z,14.50
2023-04-06T03:25:49.902Z,14.65
2023-04-06T03:28:55.126Z,14.66
2023-04-06T03:32:02.402Z,14.49
2023-04-06T03:35:11.607Z,14.63
2023-04-06T03:38:13.786Z,14.67
2023-04-06T03:41:16.554Z,14.97
2023-04-06T03:44:26.981Z,15.23
2023-04-06T03:47:29.221Z,15.39
2023-04-06T03:50:35.144Z,15.43
2023-04-06T03:53:39.463Z,15.84
2023-04-06T03:56:41.639Z,16.29
2023-04-06T03:59:44.264Z,16.35
2023-04-06T04:02:46.946Z,16.21
2023-04-06T04:05:51.999Z,16.15
2023-04-06T04:08:55.756Z,16.28
2023-04-06T04:12:00.229Z,16.14
2023-04-06T04:15:06.649Z,16.22
2023-04-06T04:18:09.026Z,16.67
2023-04-06T04:21:11.425Z,16.66
2023-04-06T04:24:14.670Z,16.84
2023-04-06T04:27:17.612Z,16.73
2023-04-06T04:30:21.292Z,16.41
2023-04-06T04:33:23.795Z,16.42
2023-04-06T04:36:28.263Z,16.48
2023-04-06T04:39:33.419Z,16.28
2023-04-06T04:42:42.981Z,16.36
2023-04-06T04:45:53.971Z,16.32
2023-04-06T04:49:10.831Z,16.16
2023-04-06T04:52:15.182Z,16.10
2023-04-06T04:55:40.859Z,15.82
2023-04-06T04:58:44.090Z,15.82
2023-04-06T05:01:55.207Z,15.75
2023-04-06T05:05:03.383Z,15.64
2023-04-06T05:08:09.387Z,15.58
2023-04-06T05:11:23.886Z,15.62
2023-04-06T05:14:35.903Z,15.56
2023-04-06T05:17:42.506Z,15.51
2023-04-06T05:20:49.310Z,15.92
2023-04-06T05:23:51.574Z,15.89
2023-04-06T05:26:54.042Z,16.07
2023-04-06T05:30:02.057Z,16.15
2023-04-06T05:33:07.965Z,16.09
2023-04-06T05:36:23.880Z,15.97
2023-04-06T05:39:26.808Z,16.34
2023-04-06T05:42:39.073Z,16.55
2023-04-06T05:45:42.263Z,16.78
2023-04-06T05:48:46.341Z,16.83
2023-04-06T05:51:50.771Z,16.79
2023-04-06T05:54:54.097Z,16.69
2023-04-06T05:57:56.479Z,16.83
2023-04-06T06:01:02.552Z,16.76
2023-04-06T06:04:12.946Z,16.64
2023-04-06T06:07:16.399Z,16.58
2023-04-06T06:10:24.005Z,16.58
2023-04-06T06:13:27.178Z,16.40
2023-04-06T06:16:31.127Z,17.43
2023-04-06T06:19:34.015Z,18.40
2023-04-06T06:22:41.413Z,18.97
2023-04-06T06:25:47.945Z,18.90
2023-04-06T06:28:50.507Z,19.38
2023-04-06T06:32:04.599Z,19.67
2023-04-06T06:35:07.866Z,19.48
2023-04-06T06:38:09.991Z,19.17
2023-04-06T06:41:13.560Z,19.20
2023-04-06T06:44:16.283Z,19.16
2023-04-06T06:47:18.529Z,19.31
2023-04-06T06:50:21.508Z,19.58
2023-04-06T06:53:24.872Z,19.44
2023-04-06T06:56:29.108Z,18.79
2023-04-06T06:59:31.876Z,19.07
2023-04-06T07:02:35.854Z,19.45
2023-04-06T07:05:40.379Z,19.20
2023-04-06T07:08:45.726Z,19.44
2023-04-06T07:11:48.050Z,19.52
2023-04-06T07:14:52.548Z,19.69
2023-04-06T07:17:56.059Z,19.04
2023-04-06T07:20:59.501Z,19.44
2023-04-06T07:24:04.700Z,19.47
2023-04-06T07:27:07.076Z,18.82
2023-04-06T07:30:12.909Z,19.32
2023-04-06T07:33:15.209Z,19.34
2023-04-06T07:36:18.166Z,19.39
2023-04-06T07:39:21.681Z,19.62
2023-04-06T07:42:26.134Z,19.54
2023-04-06T07:45:29.604Z,19.36
2023-04-06T07:48:32.629Z,19.29
2023-04-06T07:51:38.593Z,19.75
2023-04-06T07:54:42.494Z,19.69
2023-04-06T07:57:45.255Z,19.41
2023-04-06T08:00:48.276Z,20.09
2023-04-06T08:03:58.058Z,19.93
2023-04-06T08:07:00.359Z,19.69
2023-04-06T08:10:52.250Z,19.96
2023-04-06T08:14:23.467Z,19.66
2023-04-06T08:17:26.325Z,19.98
2023-04-06T08:20:29.160Z,21.03
2023-04-06T08:23:31.565Z,20.22
2023-04-06T08:26:33.929Z,19.91
2023-04-06T08:29:36.151Z,21.10
2023-04-06T08:32:38.251Z,21.40
2023-04-06T08:35:42.052Z,20.97
2023-04-06T08:38:46.792Z,20.42
2023-04-06T08:41:50.221Z,21.39
2023-04-06T08:44:56.864Z,21.26
2023-04-06T08:48:02.977Z,21.40
2023-04-06T08:51:08.840Z,25.41
2023-04-06T08:54:11.221Z,28.09
2023-04-06T08:57:14.431Z,29.39
2023-04-06T09:00:18.996Z,30.26
2023-04-06T09:03:22.549Z,29.96
2023-04-06T09:06:27.733Z,27.97
2023-04-06T09:09:30.700Z,23.90
2023-04-06T09:12:34.641Z,22.94
2023-04-06T09:15:37.268Z,21.65
2023-04-06T09:18:39.424Z,21.18
2023-04-06T09:21:46.333Z,22.22
2023-04-06T09:24:53.476Z,21.76
2023-04-06T09:28:06.732Z,20.96
2023-04-06T09:31:11.174Z,21.90
2023-04-06T09:34:23.348Z,21.75
2023-04-06T09:37:29.186Z,20.95
2023-04-06T09:40:31.434Z,21.59
2023-04-06T09:43:33.748Z,22.04
2023-04-06T09:46:54.965Z,21.21
2023-04-06T09:50:02.155Z,21.20
2023-04-06T09:53:05.365Z,21.87
2023-04-06T09:56:11.500Z,20.90
2023-04-06T09:59:35.363Z,20.50
2023-04-06T10:02:42.657Z,21.76
2023-04-06T10:05:47.054Z,20.97
2023-04-06T10:08:53.042Z,20.43
2023-04-06T10:11:56.499Z,21.39
2023-04-06T10:15:00.672Z,21.48
2023-04-06T10:18:07.176Z,20.63
2023-04-06T10:21:16.131Z,21.10
2023-04-06T10:24:19.294Z,21.47
2023-04-06T10:27:37.906Z,20.52
2023-04-06T10:30:44.721Z,20.33
2023-04-06T10:34:02.224Z,21.61
2023-04-06T10:37:17.833Z,20.72
2023-04-06T10:40:26.880Z,20.38
2023-04-06T10:43:41.480Z,21.58
2023-04-06T10:46:55.096Z,20.84
2023-04-06T10:49:58.295Z,20.54
2023-04-06T10:53:02.480Z,21.56
2023-04-06T10:56:12.520Z,21.29
2023-04-06T10:59:20.203Z,20.72
2023-04-06T11:02:23.028Z,21.29
2023-04-06T11:05:25.615Z,21.43
2023-04-06T11:08:34.645Z,21.20
2023-04-06T11:11:40.926Z,20.81
2023-04-06T11:14:54.554Z,20.58
2023-04-06T11:17:56.938Z,20.51
2023-04-06T11:20:59.861Z,20.34
2023-04-06T11:24:22.997Z,20.12
2023-04-06T11:27:26.717Z,19.93
2023-04-06T11:30:32.911Z,19.77
2023-04-06T11:33:41.376Z,19.60
2023-04-06T11:37:28.499Z,19.51
2023-04-06T11:40:38.342Z,19.26
2023-04-06T11:43:49.000Z,19.06
2023-04-06T11:46:58.617Z,19.02
2023-04-06T11:50:15.245Z,19.00
2023-04-06T11:53:18.008Z,18.89
2023-04-06T11:56:35.002Z,18.66
2023-04-06T11:59:37.916Z,18.69
2023-04-06T12:02:44.406Z,18.46
2023-04-06T12:05:46.794Z,18.34
2023-04-06T12:08:49.082Z,18.29
2023-04-06T12:11:51.912Z,18.31
2023-04-06T12:14:54.358Z,18.28
2023-04-06T12:17:56.701Z,18.32
2023-04-06T12:20:58.872Z,18.31
2023-04-06T12:24:01.868Z,18.29
2023-04-06T12:27:10.253Z,18.21
2023-04-06T12:30:13.540Z,18.08
2023-04-06T12:33:18.698Z,18.00
2023-04-06T12:36:25.331Z,17.85
2023-04-06T12:39:35.123Z,18.17
2023-04-06T12:42:38.808Z,17.94
2023-04-06T12:45:41.906Z,17.77
2023-04-06T12:48:47.485Z,17.84
2023-04-06T12:51:49.839Z,17.88
2023-04-06T12:54:52.672Z,17.70
2023-04-06T12:57:55.456Z,17.74
2023-04-06T13:00:59.224Z,17.66
2023-04-06T13:04:05.354Z,17.66
2023-04-06T13:07:09.164Z,17.65
2023-04-06T13:10:11.390Z,17.71
2023-04-06T13:13:33.773Z,17.66
2023-04-06T13:16:39.347Z,17.65
2023-04-06T13:19:41.685Z,17.51
2023-04-06T13:22:49.519Z,17.63
2023-04-06T13:26:04.595Z,17.50
2023-04-06T13:29:08.452Z,17.47
2023-04-06T13:32:11.549Z,17.41
2023-04-06T13:35:16.602Z,17.58
2023-04-06T13:38:21.572Z,17.57
2023-04-06T13:41:25.467Z,17.51
2023-04-06T13:44:31.393Z,18.60
2023-04-06T13:47:37.367Z,19.63
2023-04-06T13:50:42.029Z,20.27
2023-04-06T13:53:45.682Z,19.94
2023-04-06T13:56:49.255Z,20.36
2023-04-06T13:59:51.824Z,20.56
2023-04-06T14:03:01.645Z,20.30
2023-04-06T14:09:20.451Z,20.74
2023-04-06T14:12:25.227Z,20.37
2023-04-06T14:15:31.575Z,20.46
2023-04-06T14:18:38.306Z,20.52
2023-04-06T14:21:47.728Z,20.34
2023-04-06T14:24:51.324Z,20.52
2023-04-06T14:28:07.474Z,20.62
2023-04-06T14:31:15.852Z,20.39
2023-04-06T14:34:28.378Z,20.54
2023-04-06T14:37:33.045Z,20.90
2023-04-06T14:40:59.802Z,20.50
2023-04-06T14:44:08.215Z,20.34
2023-04-06T14:47:11.246Z,20.78
2023-04-06T14:50:13.825Z,20.66
2023-04-06T14:53:21.811Z,20.32
2023-04-06T14:56:26.364Z,20.72
2023-04-06T14:59:30.195Z,20.72
2023-04-06T15:02:34.041Z,20.33
2023-04-06T15:05:38.930Z,20.43
2023-04-06T15:08:43.250Z,20.64
2023-04-06T15:11:50.750Z,20.51
2023-04-06T15:14:53.101Z,20.44
2023-04-06T15:18:04.666Z,20.75
2023-04-06T15:21:10.411Z,20.45
2023-04-06T15:24:13.190Z,20.49
2023-04-06T15:27:25.468Z,20.75
2023-04-06T15:30:42.541Z,20.39
2023-04-06T15:33:45.352Z,20.25
2023-04-06T15:36:52.891Z,20.61
2023-04-06T15:40:04.657Z,20.69
2023-04-06T15:43:08.781Z,20.17
2023-04-06T15:46:11.344Z,20.33
2023-04-06T15:49:13.653Z,20.62
2023-04-06T15:52:16.224Z,20.44
2023-04-06T15:55:19.308Z,20.76
2023-04-06T15:58:21.755Z,20.87
2023-04-06T16:01:24.117Z,20.53
2023-04-06T16:04:28.444Z,20.31
2023-04-06T16:07:32.413Z,20.79
2023-04-06T16:10:35.517Z,20.61
2023-04-06T16:13:38.301Z,20.34
2023-04-06T16:16:43.828Z,20.88
2023-04-06T16:19:46.646Z,20.73
2023-04-06T16:22:50.485Z,20.33
2023-04-06T16:25:58.157Z,20.67
2023-04-06T16:29:00.543Z,20.71
2023-04-06T16:32:04.989Z,20.54
2023-04-06T16:35:08.108Z,20.43
2023-04-06T16:38:10.740Z,20.83
2023-04-06T16:41:13.961Z,20.64
2023-04-06T16:44:19.386Z,20.33
2023-04-06T16:47:35.420Z,20.79
2023-04-06T16:50:38.097Z,20.82
2023-04-06T16:53:42.010Z,20.48
2023-04-06T16:56:44.099Z,20.74
2023-04-06T16:59:48.731Z,20.83
2023-04-06T17:02:52.084Z,20.41
2023-04-06T17:05:55.201Z,20.56
2023-04-06T17:09:02.614Z,20.79
2023-04-06T17:12:05.706Z,20.62
2023-04-06T17:15:08.730Z,20.29
2023-04-06T17:19:27.904Z,21.23
2023-04-06T17:26:08.318Z,20.58
2023-04-06T17:29:12.388Z,20.37
2023-04-06T17:32:26.360Z,20.20
2023-04-06T17:35:48.930Z,20.04
2023-04-06T17:38:51.501Z,19.89
2023-04-06T17:41:54.859Z,19.70
2023-04-06T17:44:59.842Z,19.67
2023-04-06T17:48:02.375Z,19.32
2023-04-06T17:51:05.147Z,19.19
2023-04-06T17:54:11.017Z,18.97
2023-04-06T17:57:13.082Z,18.86
2023-04-06T18:00:21.149Z,18.76
2023-04-06T18:03:29.954Z,18.85
2023-04-06T18:06:39.295Z,18.74
2023-04-06T18:09:46.020Z,18.75
2023-04-06T18:12:50.202Z,18.56
2023-04-06T18:15:57.843Z,18.43
2023-04-06T18:19:08.875Z,18.20
2023-04-06T18:22:19.004Z,18.25
2023-04-06T18:28:51.761Z,18.10
2023-04-06T18:31:59.952Z,18.09
2023-04-06T18:35:07.136Z,17.92
2023-04-06T18:38:09.555Z,17.88
2023-04-06T18:41:11.862Z,17.81
2023-04-06T18:44:14.159Z,17.79
2023-04-06T18:47:18.597Z,17.71
2023-04-06T18:50:27.773Z,17.75
2023-04-06T18:53:29.859Z,17.58
2023-04-06T18:56:51.769Z,17.61
2023-04-06T18:59:57.288Z,17.67
2023-04-06T19:02:59.650Z,17.73
2023-04-06T19:06:07.661Z,17.92
2023-04-06T19:09:14.141Z,17.84
2023-04-06T19:12:17.880Z,17.93
2023-04-06T19:15:20.708Z,18.00
2023-04-06T19:18:22.969Z,17.99
2023-04-06T19:21:29.433Z,17.99
2023-04-06T19:24:32.247Z,17.98
2023-04-06T19:27:34.983Z,17.94
2023-04-06T19:30:38.266Z,17.85
2023-04-06T19:33:41.017Z,17.80
2023-04-06T19:36:43.313Z,17.83
2023-04-06T19:39:46.031Z,17.73
2023-04-06T19:42:48.166Z,17.71
2023-04-06T19:45:51.447Z,17.76
2023-04-06T19:48:53.729Z,17.61
2023-04-06T19:51:56.061Z,17.65
2023-04-06T19:54:58.318Z,17.56
2023-04-06T19:58:00.932Z,17.47
2023-04-06T20:01:04.562Z,17.45
2023-04-06T20:04:07.776Z,17.32
2023-04-06T20:07:12.260Z,17.31
2023-04-06T20:10:17.146Z,17.33
2023-04-06T20:13:22.011Z,17.28
2023-04-06T20:16:29.412Z,17.35
2023-04-06T20:19:31.521Z,17.25
2023-04-06T20:22:38.130Z,17.26
2023-04-06T20:25:45.119Z,17.19
2023-04-06T20:28:47.917Z,17.23
2023-04-06T20:31:50.330Z,17.22
2023-04-06T20:34:53.705Z,17.20
2023-04-06T20:37:56.541Z,17.18
2023-04-06T20:41:02.397Z,17.16
2023-04-06T20:44:08.932Z,17.06
2023-04-06T20:47:11.691Z,16.95
2023-04-06T20:50:13.934Z,16.96
2023-04-06T20:53:16.815Z,16.92
2023-04-06T20:56:20.057Z,16.92
2023-04-06T20:59:23.415Z,17.01
2023-04-06T21:02:25.840Z,16.94
2023-04-06T21:05:28.170Z,17.02
2023-04-06T21:08:30.815Z,16.92
2023-04-06T21:11:33.015Z,16.98
2023-04-06T21:14:35.545Z,16.99
2023-04-06T21:17:38.099Z,16.93
2023-04-06T21:20:40.293Z,16.90
2023-04-06T21:23:42.440Z,16.80
2023-04-06T21:26:44.660Z,16.74
2023-04-06T21:29:48.158Z,16.71
2023-04-06T21:32:50.471Z,16.65
2023-04-06T21:35:53.770Z,16.58
2023-04-06T21:38:56.517Z,16.50
2023-04-06T21:41:58.696Z,16.42
2023-04-06T21:45:00.956Z,16.45
2023-04-06T21:48:03.288Z,16.47
2023-04-06T21:51:05.562Z,16.37
2023-04-06T21:54:07.555Z,16.47
2023-04-06T21:57:09.683Z,16.59
2023-04-06T22:00:12.507Z,16.56
2023-04-06T22:03:17.667Z,16.60
2023-04-06T22:06:20.108Z,16.52
2023-04-06T22:09:22.283Z,16.53
2023-04-06T22:12:25.668Z,16.48
2023-04-06T22:15:27.795Z,16.43
2023-04-06T22:18:30.090Z,16.33
2023-04-06T22:21:33.135Z,16.33
2023-04-06T22:24:35.486Z,16.35
2023-04-06T22:27:37.606Z,16.37
2023-04-06T22:30:39.763Z,16.24
2023-04-06T22:33:41.809Z,16.17
2023-04-06T22:36:43.947Z,16.24
2023-04-06T22:39:46.110Z,16.03
2023-04-06T22:42:48.104Z,16.06
2023-04-06T22:45:50.179Z,15.99
2023-04-06T22:48:52.254Z,16.01
2023-04-06T22:51:54.382Z,15.99
2023-04-06T22:54:56.666Z,15.96
2023-04-06T22:57:58.840Z,16.11
2023-04-06T23:01:01.243Z,16.09
2023-04-06T23:04:03.447Z,16.11
2023-04-06T23:07:06.157Z,16.09
2023-04-06T23:10:08.949Z,16.02
2023-04-06T23:13:14.130Z,16.06
2023-04-06T23:16:16.579Z,16.09
2023-04-06T23:19:19.097Z,16.11
2023-04-06T23:22:21.267Z,16.01
2023-04-06T23:25:23.414Z,15.89
2023-04-06T23:28:25.525Z,15.97
2023-04-06T23:31:27.636Z,15.89
2023-04-06T23:34:29.769Z,15.83
2023-04-06T23:37:32.199Z,15.89
2023-04-06T23:40:37.316Z,15.87
2023-04-06T23:43:39.399Z,15.71
2023-04-06T23:46:41.407Z,15.79
2023-04-06T23:49:43.898Z,15.85
2023-04-06T23:52:46.338Z,15.86
2023-04-06T23:55:48.500Z,15.92
2023-04-06T23:58:50.738Z,15.82
